Mumbai Express — V2AH1 — position and weather

sailwx.info

Track history (hours):
 
Tides and Currents Weather Stations Pressure Air Temp Water Temp Dewpoint Dewpoint Depression Visibility Wind Speed Wind Dir Waves Ship Positions

Mumbai Express

Last reported at 2015-Feb-27 03:33 UTC. Time now 2015-Feb-27 04:08 UTC.
Position N 51°58' E 004°05'.

Length 260.7 m; beam 32.3 m; draft 12.5 m.

Type: Ship. MMSI: 304010914.

Date/timePositionNaut miles runAvg speedWind from/ knotsBaromVisibWave heightAir tempDewpointWater temp
2015-Feb-27 03:33N 51°58' E 004°05'0 0.4
2015-Feb-27 02:33N 51°58' E 004°04'0 0.0
2015-Feb-27 01:32N 51°58' E 004°04'0 0.0
2015-Feb-27 00:32N 51°58' E 004°04'0 0.0
2015-Feb-26 23:31N 51°58' E 004°04'0 0.0
2015-Feb-26 22:33N 51°58' E 004°04'0 0.0
2015-Feb-26 21:33N 51°58' E 004°04'0 0.0
2015-Feb-26 20:32N 51°58' E 004°04'0 0.0
2015-Feb-26 19:32N 51°58' E 004°04'0 0.0
2015-Feb-26 18:32N 51°58' E 004°04'0 0.0
2015-Feb-26 17:28N 51°58' E 004°04'0 0.0
2015-Feb-26 16:31N 51°58' E 004°04'0 0.0
2015-Feb-26 15:33N 51°58' E 004°04'0 0.0
2015-Feb-26 14:33N 51°58' E 004°04'0 0.0
2015-Feb-26 13:32N 51°58' E 004°04'0 0.0
2015-Feb-26 12:32N 51°58' E 004°04'0 0.0
2015-Feb-26 11:33N 51°58' E 004°04'4 4.3
2015-Feb-26 10:34N 52°00' E 003°58'1413.9
2015-Feb-26 09:32N 51°58' E 003°36'1717.6
2015-Feb-26 08:32N 51°53' E 003°08'3718.5
2015-Feb-26 06:32N 51°53' E 002°08'1717.4
2015-Feb-26 05:34N 51°51' E 001°41'1010.3
2015-Feb-26 04:33N 51°56' E 001°27'6 5.5
2015-Feb-26 03:33N 51°57' E 001°18'0 0.0
2015-Feb-26 02:33N 51°57' E 001°18'0 0.0
2015-Feb-26 01:32N 51°57' E 001°18'0 0.0
2015-Feb-26 00:32N 51°57' E 001°18'0 0.0
2015-Feb-25 23:31N 51°57' E 001°18'0 0.0
2015-Feb-25 22:31N 51°57' E 001°18'0 0.0
2015-Feb-25 21:31N 51°57' E 001°18'0 0.0
2015-Feb-25 20:33N 51°57' E 001°18'0 0.0
2015-Feb-25 19:33N 51°57' E 001°18'0 0.0
2015-Feb-25 18:32N 51°57' E 001°18'0 0.0
2015-Feb-25 17:32N 51°57' E 001°18'0 0.0
2015-Feb-25 16:31N 51°57' E 001°18'0 0.0
2015-Feb-25 15:31N 51°57' E 001°18'0 0.0
2015-Feb-25 14:31N 51°58' E 001°18'0 0.0
2015-Feb-25 13:33N 51°57' E 001°18'0 0.0
2015-Feb-25 12:33N 51°57' E 001°18'0 0.1
2015-Feb-25 11:33N 51°57' E 001°18'1010.1
2015-Feb-25 10:33N 51°55' E 001°34'5 5.0
2015-Feb-25 09:33N 51°55' E 001°42'0 0.1
2015-Feb-25 08:33N 51°55' E 001°42'0 0.0
2015-Feb-25 07:33N 51°55' E 001°42'0 0.0
2015-Feb-25 06:23N 51°55' E 001°42'0 0.4
2015-Feb-25 05:32N 51°55' E 001°42'8 8.0
2015-Feb-25 04:33N 51°48' E 001°48'1111.5
2015-Feb-25 03:33N 51°37' E 001°50'1414.3
2015-Feb-25 02:33N 51°25' E 002°02'9 8.6
2015-Feb-25 01:33N 51°17' E 001°55'7 6.8
2015-Feb-25 00:33N 51°12' E 001°48'6 6.0
2015-Feb-24 23:34N 51°07' E 001°42'6 5.9
2015-Feb-24 22:34N 51°03' E 001°37'7 6.7
2015-Feb-24 21:33N 50°57' E 001°31'7 7.3
2015-Feb-24 20:33N 50°50' E 001°27'  
2015-Feb-22 08:04N 39°17' W 009°52'1019.6
2015-Feb-22 07:33N 39°07' W 009°52'2019.7
2015-Feb-22 06:33N 38°48' W 009°51'2019.7
2015-Feb-22 05:33N 38°28' W 009°50'2020.1
2015-Feb-22 04:33N 38°08' W 009°47'2020.1
2015-Feb-22 03:33N 37°48' W 009°41'2019.9
2015-Feb-22 02:33N 37°29' W 009°35'6917.0
2015-Feb-21 22:31N 36°33' W 008°44'16119.6
2015-Feb-21 14:19N 35°59' W 005°30'1417.8
2015-Feb-21 13:34N 36°03' W 005°14'  
2015-Feb-18 15:18N 37°19' E 023°38'1520.4
2015-Feb-18 14:34N 37°34' E 023°41'1817.5
2015-Feb-18 13:34N 37°51' E 023°33'1 1.4
2015-Feb-18 12:32N 37°51' E 023°31'0 0.1
2015-Feb-18 11:32N 37°51' E 023°31'0 0.0
2015-Feb-18 10:31N 37°51' E 023°31'0 0.0
2015-Feb-18 09:31N 37°51' E 023°31'0 0.0
2015-Feb-18 08:31N 37°51' E 023°31'0 0.1
2015-Feb-18 07:33N 37°51' E 023°31'2 2.4
2015-Feb-18 06:33N 37°52' E 023°34'5 5.3
2015-Feb-18 05:32N 37°57' E 023°36'0 0.0
2015-Feb-18 04:32N 37°57' E 023°36'0 0.0
2015-Feb-18 03:31N 37°57' E 023°36'0 0.0
2015-Feb-18 02:31N 37°57' E 023°36'0 0.0
2015-Feb-18 01:30N 37°57' E 023°36'0 0.0
2015-Feb-18 00:30N 37°57' E 023°36'0 0.0
2015-Feb-17 23:33N 37°57' E 023°36'0 0.0
2015-Feb-17 22:32N 37°57' E 023°36'0 0.0
2015-Feb-17 21:32N 37°57' E 023°36'0 0.0
2015-Feb-17 20:28N 37°57' E 023°36'0 0.0
2015-Feb-17 19:31N 37°57' E 023°36'0 0.0
2015-Feb-17 17:33N 37°57' E 023°36'0 0.0
2015-Feb-17 16:27N 37°57' E 023°36'0 0.0
2015-Feb-17 15:32N 37°57' E 023°36'0 0.0
2015-Feb-17 14:32N 37°57' E 023°36'0 0.0
2015-Feb-17 13:31N 37°57' E 023°36'0 0.0
2015-Feb-17 12:31N 37°57' E 023°36'0 0.0
2015-Feb-17 11:30N 37°57' E 023°36'0 0.0
2015-Feb-17 10:30N 37°57' E 023°36'0 0.0
2015-Feb-17 09:33N 37°57' E 023°36'0 0.0
2015-Feb-17 08:32N 37°57' E 023°36'0 0.0
2015-Feb-17 07:29N 37°57' E 023°36'0 0.0
2015-Feb-17 06:33N 37°57' E 023°36'2 2.0
2015-Feb-17 05:33N 37°55' E 023°36'2 2.1
2015-Feb-17 04:33N 37°53' E 023°36'  
Track history (hours):
 
Tides and Currents Weather Stations Pressure Air Temp Water Temp Dewpoint Dewpoint Depression Visibility Wind Speed Wind Dir Waves Ship Positions

Mumbai Express

Last reported at 2015-Feb-27 03:33 UTC. Time now 2015-Feb-27 04:08 UTC.
Position N 51°58' E 004°05'.

Length 260.7 m; beam 32.3 m; draft 12.5 m.

Type: Ship. MMSI: 304010914.

Date/timePositionNaut miles runAvg speedWind from/ knotsBaromVisibWave heightAir tempDewpointWater temp
2015-Feb-27 03:33N 51°58' E 004°05'0 0.4
2015-Feb-27 02:33N 51°58' E 004°04'0 0.0
2015-Feb-27 01:32N 51°58' E 004°04'0 0.0
2015-Feb-27 00:32N 51°58' E 004°04'0 0.0
2015-Feb-26 23:31N 51°58' E 004°04'0 0.0
2015-Feb-26 22:33N 51°58' E 004°04'0 0.0
2015-Feb-26 21:33N 51°58' E 004°04'0 0.0
2015-Feb-26 20:32N 51°58' E 004°04'0 0.0
2015-Feb-26 19:32N 51°58' E 004°04'0 0.0
2015-Feb-26 18:32N 51°58' E 004°04'0 0.0
2015-Feb-26 17:28N 51°58' E 004°04'0 0.0
2015-Feb-26 16:31N 51°58' E 004°04'0 0.0
2015-Feb-26 15:33N 51°58' E 004°04'0 0.0
2015-Feb-26 14:33N 51°58' E 004°04'0 0.0
2015-Feb-26 13:32N 51°58' E 004°04'0 0.0
2015-Feb-26 12:32N 51°58' E 004°04'0 0.0
2015-Feb-26 11:33N 51°58' E 004°04'4 4.3
2015-Feb-26 10:34N 52°00' E 003°58'1413.9
2015-Feb-26 09:32N 51°58' E 003°36'1717.6
2015-Feb-26 08:32N 51°53' E 003°08'3718.5
2015-Feb-26 06:32N 51°53' E 002°08'1717.4
2015-Feb-26 05:34N 51°51' E 001°41'1010.3
2015-Feb-26 04:33N 51°56' E 001°27'6 5.5
2015-Feb-26 03:33N 51°57' E 001°18'0 0.0
2015-Feb-26 02:33N 51°57' E 001°18'0 0.0
2015-Feb-26 01:32N 51°57' E 001°18'0 0.0
2015-Feb-26 00:32N 51°57' E 001°18'0 0.0
2015-Feb-25 23:31N 51°57' E 001°18'0 0.0
2015-Feb-25 22:31N 51°57' E 001°18'0 0.0
2015-Feb-25 21:31N 51°57' E 001°18'0 0.0
2015-Feb-25 20:33N 51°57' E 001°18'0 0.0
2015-Feb-25 19:33N 51°57' E 001°18'0 0.0
2015-Feb-25 18:32N 51°57' E 001°18'0 0.0
2015-Feb-25 17:32N 51°57' E 001°18'0 0.0
2015-Feb-25 16:31N 51°57' E 001°18'0 0.0
2015-Feb-25 15:31N 51°57' E 001°18'0 0.0
2015-Feb-25 14:31N 51°58' E 001°18'0 0.0
2015-Feb-25 13:33N 51°57' E 001°18'0 0.0
2015-Feb-25 12:33N 51°57' E 001°18'0 0.1
2015-Feb-25 11:33N 51°57' E 001°18'1010.1
2015-Feb-25 10:33N 51°55' E 001°34'5 5.0
2015-Feb-25 09:33N 51°55' E 001°42'0 0.1
2015-Feb-25 08:33N 51°55' E 001°42'0 0.0
2015-Feb-25 07:33N 51°55' E 001°42'0 0.0
2015-Feb-25 06:23N 51°55' E 001°42'0 0.4
2015-Feb-25 05:32N 51°55' E 001°42'8 8.0
2015-Feb-25 04:33N 51°48' E 001°48'1111.5
2015-Feb-25 03:33N 51°37' E 001°50'1414.3
2015-Feb-25 02:33N 51°25' E 002°02'9 8.6
2015-Feb-25 01:33N 51°17' E 001°55'7 6.8
2015-Feb-25 00:33N 51°12' E 001°48'6 6.0
2015-Feb-24 23:34N 51°07' E 001°42'6 5.9
2015-Feb-24 22:34N 51°03' E 001°37'7 6.7
2015-Feb-24 21:33N 50°57' E 001°31'7 7.3
2015-Feb-24 20:33N 50°50' E 001°27'  
2015-Feb-22 08:04N 39°17' W 009°52'1019.6
2015-Feb-22 07:33N 39°07' W 009°52'2019.7
2015-Feb-22 06:33N 38°48' W 009°51'2019.7
2015-Feb-22 05:33N 38°28' W 009°50'2020.1
2015-Feb-22 04:33N 38°08' W 009°47'2020.1
2015-Feb-22 03:33N 37°48' W 009°41'2019.9
2015-Feb-22 02:33N 37°29' W 009°35'6917.0
2015-Feb-21 22:31N 36°33' W 008°44'16119.6
2015-Feb-21 14:19N 35°59' W 005°30'1417.8
2015-Feb-21 13:34N 36°03' W 005°14'  
2015-Feb-18 15:18N 37°19' E 023°38'1520.4
2015-Feb-18 14:34N 37°34' E 023°41'1817.5
2015-Feb-18 13:34N 37°51' E 023°33'1 1.4
2015-Feb-18 12:32N 37°51' E 023°31'0 0.1
2015-Feb-18 11:32N 37°51' E 023°31'0 0.0
2015-Feb-18 10:31N 37°51' E 023°31'0 0.0
2015-Feb-18 09:31N 37°51' E 023°31'0 0.0
2015-Feb-18 08:31N 37°51' E 023°31'0 0.1
2015-Feb-18 07:33N 37°51' E 023°31'2 2.4
2015-Feb-18 06:33N 37°52' E 023°34'5 5.3
2015-Feb-18 05:32N 37°57' E 023°36'0 0.0
2015-Feb-18 04:32N 37°57' E 023°36'0 0.0
2015-Feb-18 03:31N 37°57' E 023°36'0 0.0
2015-Feb-18 02:31N 37°57' E 023°36'0 0.0
2015-Feb-18 01:30N 37°57' E 023°36'0 0.0
2015-Feb-18 00:30N 37°57' E 023°36'0 0.0
2015-Feb-17 23:33N 37°57' E 023°36'0 0.0
2015-Feb-17 22:32N 37°57' E 023°36'0 0.0
2015-Feb-17 21:32N 37°57' E 023°36'0 0.0
2015-Feb-17 20:28N 37°57' E 023°36'0 0.0
2015-Feb-17 19:31N 37°57' E 023°36'0 0.0
2015-Feb-17 17:33N 37°57' E 023°36'0 0.0
2015-Feb-17 16:27N 37°57' E 023°36'0 0.0
2015-Feb-17 15:32N 37°57' E 023°36'0 0.0
2015-Feb-17 14:32N 37°57' E 023°36'0 0.0
2015-Feb-17 13:31N 37°57' E 023°36'0 0.0
2015-Feb-17 12:31N 37°57' E 023°36'0 0.0
2015-Feb-17 11:30N 37°57' E 023°36'0 0.0
2015-Feb-17 10:30N 37°57' E 023°36'0 0.0
2015-Feb-17 09:33N 37°57' E 023°36'0 0.0
2015-Feb-17 08:32N 37°57' E 023°36'0 0.0
2015-Feb-17 07:29N 37°57' E 023°36'0 0.0
2015-Feb-17 06:33N 37°57' E 023°36'2 2.0
2015-Feb-17 05:33N 37°55' E 023°36'2 2.1
2015-Feb-17 04:33N 37°53' E 023°36'  

Dump ship's entire track history